• Join FlightAware (Why Join?)
  • Login
  • US Flag 
07:51AM EDT


 

Airport Tracker/Info


-or-


 

Live Flight TrackerFlight Track Log ✈ UAL1021 ✈ 12-Jul-2013 ✈ KEWR - MPTO / PTY

Flight Track Log - Related Links

Times and Time Zones

All times are in EDT time to prevent confusion due to time zone crossing. See the UAL1021 flight status page for this flight to view local times or setup timezone preferences in your user account.

Time Position Orientation Groundspeed Altitude Reporting Facility
EDT Latitude Longitude Course Direction KTS MPH feet Rate Location/Type
05:37PM 40.7162 -74.1525 26° Northeast 188 216 1,200  Level FlightAware ADS-B
05:37PM 40.7286 -74.1386 40° Northeast 177 204 1,800 1,860 Climbing FlightAware ADS-B
05:38PM 40.7309 -74.1365 35° Northeast 185 213 1,900 1,800 Climbing FlightAware ADS-B
05:38PM 40.7387 -74.1327 20° North 190 219 2,200 2,100 Climbing FlightAware ADS-B
05:38PM 40.7425 -74.1322 North 191 220 2,400 2,640 Climbing FlightAware ADS-B
05:38PM 40.7469 -74.1319 North 191 220 2,600 3,000 Climbing FlightAware ADS-B
05:38PM 40.7496 -74.1319 360° North 193 222 2,800 3,000 Climbing FlightAware ADS-B
05:38PM 40.7524 -74.1323 354° North 196 226 2,900 960 Climbing FlightAware ADS-B
05:38PM 40.7550 -74.1331 347° North 200 230 2,900 840 Level FlightAware ADS-B
05:38PM 40.7587 -74.1349 340° North 206 237 3,000 1,800 Climbing FlightAware ADS-B
05:38PM 40.7633 -74.1385 329° Northwest 212 244 3,200 1,980 Climbing FlightAware ADS-B
05:38PM 40.7657 -74.1409 323° Northwest 219 252 3,300 720 Climbing FlightAware ADS-B
05:38PM 40.7699 -74.1460 317° Northwest 231 266 3,300 660 Level FlightAware ADS-B
05:38PM 40.7723 -74.1498 310° West 235 270 3,400 840 Climbing FlightAware ADS-B
05:38PM 40.7746 -74.1543 304° West 247 284 3,400  Level FlightAware ADS-B
05:38PM 40.7769 -74.1610 294° West 257 296 3,400 600 Level FlightAware ADS-B
05:39PM 40.7784 -74.1686 285° West 268 308 3,500 720 Climbing FlightAware ADS-B
05:39PM 40.7789 -74.1734 278° West 273 314 3,500 960 Level FlightAware ADS-B
05:39PM 40.7789 -74.1788 270° West 278 320 3,600 2,220 Climbing FlightAware ADS-B
05:39PM 40.7779 -74.1867 261° West 280 322 3,800 2,220 Climbing FlightAware ADS-B
05:39PM 40.7768 -74.1917 254° West 280 322 3,900 2,280 Climbing FlightAware ADS-B
05:39PM 40.7695 -74.2072 238° Southwest 278 320 4,300 2,100 Climbing FlightAware ADS-B
05:39PM 40.7628 -74.2146 220° Southwest 278 320 4,500 1,260 Climbing FlightAware ADS-B
05:39PM 40.7551 -74.2195 206° Southwest 280 322 4,600 1,080 Climbing FlightAware ADS-B
05:39PM 40.7497 -74.2215 196° South 281 323 4,700 2,280 Climbing FlightAware ADS-B
05:39PM 40.7380 -74.2249 192° South 282 325 5,100 2,520 Climbing FlightAware ADS-B
05:39PM 40.7324 -74.2267 194° South 281 323 5,300 3,000 Climbing FlightAware ADS-B
05:40PM 40.7182 -74.2307 192° South 280 322 5,900 3,000 Climbing FlightAware ADS-B
05:40PM 40.7070 -74.2334 190° South 280 322 6,300 2,220 Climbing FlightAware ADS-B
05:40PM 40.6981 -74.2354 190° South 281 323 6,500 1,620 Climbing FlightAware ADS-B
05:40PM 40.6828 -74.2388 190° South 288 331 6,800 1,560 Climbing FlightAware ADS-B
05:40PM 40.6777 -74.2400 190° South 293 337 6,900 2,280 Climbing FlightAware ADS-B
05:40PM 40.6657 -74.2430 191° South 294 338 7,300 2,820 Climbing FlightAware ADS-B
05:40PM 40.6556 -74.2462 194° South 291 335 7,700 3,300 Climbing FlightAware ADS-B
05:40PM 40.6543 -74.2467 196° South 291 335 7,800 1,500 Climbing FlightAware ADS-B
05:41PM 40.6506 -74.2486 201° Southwest 293 337 7,800 1,320 Level FlightAware ADS-B
05:41PM 40.6434 -74.2540 210° Southwest 303 349 8,000 1,800 Climbing FlightAware ADS-B
05:41PM 40.6381 -74.2598 220° Southwest 309 356 8,100 1,200 Climbing FlightAware ADS-B
05:41PM 40.6376 -74.2604 222° Southwest 309 356 8,100 3,000 Level FlightAware ADS-B
05:41PM 40.6325 -74.2675 227° Southwest 312 359 8,400 3,420 Climbing FlightAware ADS-B
05:41PM 40.6239 -74.2798 227° Southwest 304 350 8,900 3,180 Climbing FlightAware ADS-B
05:41PM 40.6181 -74.2885 229° Southwest 303 349 9,200 2,580 Climbing FlightAware ADS-B
05:41PM 40.6091 -74.3021 229° Southwest 302 348 9,600 2,280 Climbing FlightAware ADS-B
05:41PM 40.6066 -74.3061 231° Southwest 302 348 9,700 2,100 Climbing FlightAware ADS-B
05:42PM 40.5840 -74.3425 231° Southwest 311 358 10,600 2,280 Climbing FlightAware ADS-B
05:42PM 40.5712 -74.3620 229° Southwest 302 348 11,200 2,280 Climbing FlightAware ADS-B
05:42PM 40.5627 -74.3704 217° Southwest 301 346 11,400 1,500 Climbing FlightAware ADS-B
05:42PM 40.5615 -74.3713 210° Southwest 301 346 11,400 1,500 Level FlightAware ADS-B
05:42PM 40.5529 -74.3766 205° Southwest 303 349 11,600 1,980 Climbing FlightAware ADS-B
05:42PM 40.5456 -74.3793 196° South 300 345 11,800 3,000 Climbing FlightAware ADS-B
05:42PM 40.5396 -74.3803 187° South 293 337 12,100 4,260 Climbing FlightAware ADS-B
05:42PM 40.5286 -74.3799 178° South 275 316 12,800 4,500 Climbing FlightAware ADS-B
05:43PM 40.5237 -74.3791 173° South 277 319 13,000 2,520 Climbing FlightAware ADS-B
05:43PM 40.5193 -74.3779 168° South 269 310 13,100 1,380 Climbing FlightAware ADS-B
05:43PM 40.5087 -74.3730 161° South 273 314 13,300 420 Climbing FlightAware ADS-B
05:43PM 40.5044 -74.3700 152° Southeast 279 321 13,200 -1,380 Descending FlightAware ADS-B
05:43PM 40.4989 -74.3652 146° Southeast 288 331 13,100 -900 Descending FlightAware ADS-B
05:43PM 40.4964 -74.3625 141° Southeast 281 323 13,100 -900 Level FlightAware ADS-B
05:43PM 40.4918 -74.3572 139° Southeast 303 349 13,000 540 Descending FlightAware ADS-B
05:43PM 40.4620 -74.3233 139° Southeast 328 377 13,400 1,200 Climbing FlightAware ADS-B
05:44PM 40.4576 -74.3184 140° Southeast 328 377 13,600 2,040 Climbing FlightAware ADS-B
05:44PM 40.4242 -74.2811 140° Southeast 336 387 14,500 1,680 Climbing FlightAware ADS-B
05:45PM 40.3864 -74.2408 141° Southeast 346 398 15,300 1,800 Climbing FlightAware ADS-B
05:45PM 40.3463 -74.1985 141° Southeast 349 402 16,400 1,800 Climbing FlightAware ADS-B
05:45PM 40.3283 -74.1816 144° Southeast 354 407 16,700 960 Climbing FlightAware ADS-B
05:45PM 40.3223 -74.1776 153° Southeast 356 410 16,700 540 Level FlightAware ADS-B
05:45PM 40.3112 -74.1723 160° South 359 413 16,800 1,080 Climbing FlightAware ADS-B
05:46PM 40.3049 -74.1703 166° South 361 415 16,900 1,980 Climbing FlightAware ADS-B
05:46PM 40.2910 -74.1684 174° South 362 417 17,200 1,860 Climbing FlightAware ADS-B
05:46PM 40.2787 -74.1696 184° South 361 415 17,400 2,160 Climbing FlightAware ADS-B
05:46PM 40.2300 -74.1829 192° South 353 406 18,600 1,500 Climbing FlightAware ADS-B
05:47PM 40.1772 -74.1993 193° South 375 432 19,000 1,200 Climbing FlightAware ADS-B
05:47PM 40.1263 -74.2151 193° South 376 433 19,900 1,620 Climbing FlightAware ADS-B
05:48PM 40.0730 -74.2315 193° South 377 434 20,700 1,500 Climbing FlightAware ADS-B
05:48PM 40.0316 -74.2444 193° South 380 437 21,300 1,440 Climbing FlightAware ADS-B
05:48PM 40.0184 -74.2502 199° South 380 437 21,500 1,860 Climbing FlightAware ADS-B
05:49PM 40.0053 -74.2576 203° Southwest 378 435 21,800 1,680 Climbing FlightAware ADS-B
05:49PM 39.9856 -74.2719 209° Southwest 380 437 22,100 1,020 Climbing FlightAware ADS-B
05:49PM 39.9798 -74.2770 214° Southwest 381 438 22,100 1,200 Level FlightAware ADS-B
05:49PM 39.9356 -74.3192 216° Southwest 384 442 22,800 1,140 Climbing FlightAware ADS-B
05:50PM 39.8777 -74.3743 216° Southwest 391 450 23,500 1,080 Climbing FlightAware ADS-B
05:50PM 39.8328 -74.4170 216° Southwest 393 452 24,100 900 Climbing FlightAware ADS-B
05:51PM 39.8223 -74.4277 218° Southwest 397 457 24,100 780 Level FlightAware ADS-B
05:51PM 39.8024 -74.4515 223° Southwest 398 458 24,400 1,320 Climbing FlightAware ADS-B
05:51PM 39.7637 -74.5026 225° Southwest 396 456 25,100 1,440 Climbing FlightAware ADS-B
05:52PM 39.7236 -74.5558 226° Southwest 392 451 25,900 1,440 Climbing FlightAware ADS-B
05:52PM 39.6853 -74.6068 226° Southwest 386 444 26,600 1,200 Climbing FlightAware ADS-B
05:53PM 39.6433 -74.6623 226° Southwest 388 447 27,200 600 Climbing FlightAware ADS-B
05:53PM 39.6045 -74.7131 225° Southwest 398 458 27,300 240 Climbing FlightAware ADS-B
05:54PM 39.5597 -74.7721 225° Southwest 408 470 27,500 600 Climbing FlightAware ADS-B
05:55PM 39.5174 -74.8276 225° Southwest 414 476 28,000 840 Climbing FlightAware ADS-B
05:55PM 39.4746 -74.8838 225° Southwest 417 480 28,400 720 Climbing FlightAware ADS-B
05:56PM 39.4337 -74.9371 225° Southwest 418 481 28,800 900 Climbing FlightAware ADS-B
05:56PM 39.3926 -74.9907 225° Southwest 419 482 29,300 840 Climbing FlightAware ADS-B
05:57PM 39.3474 -75.0497 225° Southwest 420 483 29,700 720 Climbing FlightAware ADS-B
05:57PM 39.3182 -75.0864 224° Southwest 419 482 30,000 900 Climbing FlightAware ADS-B
05:57PM 39.2885 -75.1120 214° Southwest 417 480 30,300 900 Climbing FlightAware ADS-B
05:57PM 39.2742 -75.1208 205° Southwest 418 481 30,400 840 Climbing FlightAware ADS-B
05:58PM 39.2647 -75.1256 201° Southwest 418 481 30,500 780 Climbing FlightAware ADS-B
05:58PM 39.2095 -75.1490 198° South 417 480 30,900 900 Climbing FlightAware ADS-B
05:59PM 39.1556 -75.1720 198° South 415 478 31,400 900 Climbing FlightAware ADS-B
05:59PM 39.0908 -75.1994 198° South 414 476 31,900 480 Climbing FlightAware ADS-B
06:00PM 39.0253 -75.2271 198° South 415 478 32,000 60 Climbing FlightAware ADS-B
06:00PM 38.9692 -75.2506 198° South 416 479 32,000  Level FlightAware ADS-B
06:01PM 38.8969 -75.2810 198° South 416 479 32,000  Level FlightAware ADS-B
06:01PM 38.8401 -75.3054 199° South 415 478 32,000  Level FlightAware ADS-B
06:02PM 38.7870 -75.3383 206° Southwest 415 478 32,000  Level FlightAware ADS-B
06:02PM 38.7358 -75.3739 208° Southwest 419 482 32,000  Level FlightAware ADS-B
06:03PM 38.6722 -75.4174 208° Southwest 425 489 32,000  Level FlightAware ADS-B
06:04PM 38.6185 -75.4543 208° Southwest 425 489 32,000  Level FlightAware ADS-B
06:04PM 38.5653 -75.4904 208° Southwest 426 490 32,000  Level FlightAware ADS-B
06:05PM 38.5112 -75.5269 208° Southwest 428 493 32,000  Level FlightAware ADS-B
06:05PM 38.4566 -75.5638 208° Southwest 427 491 32,000  Level FlightAware ADS-B
06:06PM 38.3718 -75.6212 208° Southwest 426 490 32,000  Level FlightAware ADS-B
06:06PM 38.3196 -75.6564 208° Southwest 426 490 32,000  Level FlightAware ADS-B
06:07PM 38.2672 -75.6916 208° Southwest 425 489 32,000  Level FlightAware ADS-B
06:07PM 38.2114 -75.7292 208° Southwest 425 489 32,000  Level FlightAware ADS-B
06:08PM 38.1170 -75.7930 208° Southwest 417 480 32,000  Level FlightAware
06:09PM 38.0400 -75.8440 208° Southwest 417 480 32,000  Level FlightAware
06:10PM 37.9933 -75.8751 208° Southwest 424 488 32,000  Level FlightAware ADS-B
06:10PM 37.9409 -75.9102 208° Southwest 423 487 32,000  Level FlightAware ADS-B
06:11PM 37.8853 -75.9472 208° Southwest 422 486 32,000  Level FlightAware ADS-B
06:11PM 37.8400 -75.9770 207° Southwest 422 486 32,000  Level FlightAware
06:12PM 37.7470 -76.0390 208° Southwest 420 483 32,000  Level FlightAware
06:13PM 37.6890 -76.0770 207° Southwest 420 483 32,000  Level FlightAware
06:13PM 37.6030 -76.1340 208° Southwest 420 483 32,000  Level FlightAware
06:14PM 37.5340 -76.1790 207° Southwest 422 486 32,000  Level FlightAware
06:14PM 37.4890 -76.2090 208° Southwest 423 487 32,000  Level FlightAware
06:15PM 37.3829 -76.2788 208° Southwest 424 488 32,000  Level FlightAware ADS-B
06:16PM 37.3228 -76.3183 208° Southwest 425 489 32,000  Level FlightAware ADS-B
06:17PM 37.2613 -76.3584 207° Southwest 426 490 32,000  Level FlightAware ADS-B
06:17PM 37.2065 -76.3941 207° Southwest 426 490 32,000  Level FlightAware ADS-B
06:18PM 37.1519 -76.4296 207° Southwest 427 491 32,000  Level FlightAware ADS-B
06:18PM 37.0939 -76.4672 207° Southwest 427 491 32,000  Level FlightAware ADS-B
06:19PM 37.0180 -76.5170 208° Southwest 427 491 32,000  Level FlightAware
06:20PM 36.9550 -76.5570 207° Southwest 426 490 32,000  Level FlightAware
06:20PM 36.8890 -76.6000 208° Southwest 426 490 32,000  Level FlightAware
06:21PM 36.8150 -76.6470 207° Southwest 426 490 32,000  Level FlightAware
06:22PM 36.7430 -76.6940 208° Southwest 427 491 32,000  Level FlightAware
06:22PM 36.6850 -76.7310 207° Southwest 427 491 32,000  Level FlightAware
06:23PM 36.5790 -76.7990 207° Southwest 429 494 32,000  Level FlightAware
06:24PM 36.5000 -76.8490 207° Southwest 421 484 32,000  Level FlightAware
06:25PM 36.4290 -76.8950 208° Southwest 421 484 32,000  Level FlightAware
06:25PM 36.3670 -76.9340 207° Southwest 420 483 32,000  Level FlightAware
06:26PM 36.2890 -76.9840 207° Southwest 421 484 32,000  Level FlightAware
06:27PM 36.2170 -77.0290 207° Southwest 420 483 32,000  Level FlightAware
06:27PM 36.1550 -77.0690 208° Southwest 422 486 32,000  Level FlightAware
06:28PM 36.0750 -77.1190 207° Southwest 431 496 32,000  Level FlightAware
06:29PM 36.0060 -77.1620 207° Southwest 432 497 32,000  Level FlightAware
06:29PM 35.9350 -77.2070 207° Southwest 432 497 32,000  Level FlightAware
06:30PM 35.8620 -77.2530 207° Southwest 432 497 32,000  Level FlightAware
06:31PM 35.7530 -77.3200 207° Southwest 430 495 32,000  Level FlightAware
06:32PM 35.6920 -77.3730 215° Southwest 434 499 32,000  Level FlightAware
06:32PM 35.6410 -77.4230 219° Southwest 434 499 32,000  Level FlightAware
06:33PM 35.5780 -77.4870 220° Southwest 434 499 32,000  Level FlightAware
06:34PM 35.5300 -77.5340 219° Southwest 434 499 32,000  Level FlightAware
06:34PM 35.4820 -77.5820 219° Southwest 434 499 32,000  Level FlightAware
06:35PM 35.4330 -77.6300 219° Southwest 434 499 32,000  Level FlightAware
06:36PM 35.3690 -77.6940 219° Southwest 434 499 32,000  Level FlightAware
06:36PM 35.3220 -77.7410 219° Southwest 434 499 32,000  Level FlightAware
06:37PM 35.2570 -77.8060 219° Southwest 434 499 32,000  Level FlightAware
06:38PM 35.2090 -77.8530 219° Southwest 434 499 32,000  Level FlightAware
06:38PM 35.1440 -77.9170 219° Southwest 434 499 32,000  Level FlightAware
06:39PM 35.0950 -77.9660 219° Southwest 434 499 32,000  Level FlightAware
06:40PM 35.0300 -78.0300 219° Southwest 434 499 32,000  Level FlightAware
06:40PM 34.8430 -78.2080 218° Southwest 431 496 32,000  Level FlightAware
06:41PM 34.7890 -78.2590 218° Southwest 431 496 32,000  Level FlightAware
06:42PM 34.7160 -78.3300 219° Southwest 431 496 32,000  Level FlightAware
06:42PM 34.6660 -78.3770 218° Southwest 431 496 32,000  Level FlightAware
06:43PM 34.6020 -78.4380 218° Southwest 431 496 32,000  Level FlightAware
06:44PM 34.5540 -78.4840 218° Southwest 431 496 32,000  Level FlightAware
06:45PM 34.4900 -78.5450 218° Southwest 431 496 32,000  Level FlightAware
06:45PM 34.4420 -78.5900 218° Southwest 431 496 32,000  Level FlightAware
06:46PM 34.3940 -78.6360 218° Southwest 431 496 32,000  Level FlightAware
06:47PM 34.3280 -78.6980 218° Southwest 431 496 32,000  Level FlightAware
06:47PM 34.2800 -78.7430 218° Southwest 431 496 32,000  Level FlightAware
06:48PM 34.2300 -78.7910 218° Southwest 431 496 32,000  Level FlightAware
06:49PM 34.1820 -78.8360 218° Southwest 431 496 32,000  Level FlightAware
06:49PM 34.1160 -78.8980 218° Southwest 431 496 32,000  Level FlightAware
06:50PM 33.9380 -79.0500 215° Southwest 436 502 32,000  Level FlightAware
06:51PM 33.8620 -79.0850 201° Southwest 436 502 32,000  Level FlightAware
06:51PM 33.7780 -79.1240 201° Southwest 437 503 32,000  Level FlightAware
06:52PM 33.7030 -79.1590 201° Southwest 436 502 32,000  Level FlightAware
06:53PM 33.6300 -79.1930 201° Southwest 437 503 32,000  Level FlightAware
06:54PM 33.5430 -79.2340 201° Southwest 436 502 32,000  Level FlightAware
06:55PM 33.4300 -79.2860 201° Southwest 439 505 32,000  Level FlightAware
06:55PM 33.3540 -79.3210 201° Southwest 441 507 32,000  Level FlightAware
06:56PM 33.2890 -79.3510 201° Southwest 441 507 32,000  Level FlightAware
06:57PM 33.1730 -79.4050 201° Southwest 443 510 32,000  Level FlightAware
06:58PM 33.0880 -79.4440 201° Southwest 445 512 32,000  Level FlightAware
06:58PM 32.9830 -79.4920 201° Southwest 444 511 32,000  Level FlightAware
06:59PM 33.3330 -79.3310 21° North 439 505 32,000  Level FlightAware
07:02PM 33.2090 -79.3880 201° Southwest 442 509 32,000  Level FlightAware
07:02PM 33.0740 -79.4500 201° Southwest 442 509 32,000  Level FlightAware
07:03PM 32.9740 -79.4970 202° Southwest 443 510 32,000  Level FlightAware
07:04PM 32.8530 -79.5520 201° Southwest 445 512 32,000  Level FlightAware
07:05PM 32.6880 -79.6270 201° Southwest 447 514 32,000  Level FlightAware
07:05PM 32.6680 -79.6360 201° Southwest 448 516 32,000  Level FlightAware
07:06PM 32.5910 -79.6710 201° Southwest 450 518 32,000  Level FlightAware
07:07PM 32.4460 -79.7360 201° Southwest 450 518 32,000  Level FlightAware
07:08PM 32.4280 -79.7450 203° Southwest 451 519 32,000  Level FlightAware
07:09PM 32.4470 -79.7370 20° North 451 519 32,000  Level FlightAware
07:09PM 32.4480 -79.7360 40° Northeast 451 519 32,000  Level FlightAware
07:10PM 32.4450 -79.7380 209° Southwest 451 519 32,000  Level FlightAware
07:11PM 32.3850 -79.7650 201° Southwest 451 519 32,000  Level FlightAware
07:12PM 32.3040 -79.8020 201° Southwest 451 519 32,000  Level FlightAware
07:13PM 32.2040 -79.8470 201° Southwest 451 519 32,000  Level FlightAware
07:13PM 32.3480 -79.7810 21° North 32,000  Level FlightAware
07:14PM 31.1275 -80.0069 21° North 469 540 32,000  Level Jacksonville Center
07:15PM 30.9942 -80.0183 184° South 463 533 32,000 -60 Level Jacksonville Center
07:16PM 30.8711 -80.0342 186° South 464 534 31,900  Descending Jacksonville Center
07:17PM 30.7378 -80.0478 185° South 474 545 32,000  Climbing Jacksonville Center
07:18PM 30.6067 -80.0592 184° South 475 547 32,000  Level Jacksonville Center
07:19PM 30.4789 -80.0389 172° South 465 535 32,000  Level Jacksonville Center
07:20PM 30.3489 -80.0161 171° South 470 541 32,000  Level Jacksonville Center
07:21PM 30.2189 -79.9961 172° South 470 541 32,000  Level Jacksonville Center
07:22PM 30.0892 -79.9758 172° South 470 541 32,000  Level Jacksonville Center
07:22PM 30.0067 -79.9603 171° South 470 541 32,000  Level Miami Center
07:23PM 29.8800 -79.9400 172° South 460 529 32,000  Level Miami Center
07:29PM 29.1220 -79.8230 172° South 467 537 32,000  Level FlightAware
07:30PM 28.9890 -79.8010 172° South 467 537 32,000  Level FlightAware
07:31PM 28.8850 -79.7860 173° South 468 539 32,000  Level FlightAware
07:32PM 28.7540 -79.7470 165° South 475 547 32,000  Level FlightAware
07:33PM 28.6550 -79.7060 160° South 470 541 32,000  Level FlightAware
07:34PM 28.5890 -79.6840 164° South 470 541 32,000  Level FlightAware
07:34PM 28.4660 -79.6450 164° South 483 556 32,000  Level FlightAware
07:35PM 28.3800 -79.6160 163° South 484 557 32,000  Level FlightAware
07:36PM 28.2820 -79.5820 163° South 475 547 32,000  Level FlightAware
07:36PM 28.1950 -79.5580 166° South 474 545 32,000  Level FlightAware
07:37PM 28.0970 -79.5360 169° South 471 542 32,000  Level FlightAware
07:38PM 27.9900 -79.5260 175° South 467 537 32,000  Level FlightAware
07:39PM 27.8730 -79.5160 176° South 466 536 32,000  Level FlightAware
07:40PM 27.7800 -79.5140 179° South 470 541 32,000  Level FlightAware
07:40PM 27.6920 -79.5120 179° South 469 540 32,000  Level FlightAware
07:41PM 27.5620 -79.5120 180° South 467 537 32,000  Level FlightAware
07:42PM 27.4750 -79.5120 180° South 464 534 32,000  Level FlightAware
07:43PM 27.3900 -79.5110 179° South 463 533 32,000  Level FlightAware
07:43PM 27.3020 -79.5120 181° South 463 533 32,000  Level FlightAware
07:44PM 27.2210 -79.5120 180° South 463 533 32,000  Level FlightAware
07:45PM 27.1110 -79.5130 180° South 465 535 32,000  Level FlightAware
07:45PM 27.0190 -79.5130 180° South 464 534 32,000  Level FlightAware
07:46PM 26.9290 -79.5130 180° South 463 533 32,000  Level FlightAware
07:47PM 26.8540 -79.5140 181° South 463 533 32,000  Level FlightAware
07:47PM 26.7660 -79.5140 180° South 464 534 32,000  Level FlightAware
07:48PM 26.6720 -79.5150 181° South 465 535 32,000  Level FlightAware
07:49PM 26.5500 -79.5170 181° South 468 539 32,000  Level FlightAware
07:50PM 26.4670 -79.5180 181° South 470 541 32,000 120 Level FlightAware
07:50PM 26.3690 -79.5200 181° South 469 540 32,200 600 Climbing FlightAware
07:51PM 26.2780 -79.5220 181° South 465 535 32,900 540 Climbing FlightAware
07:52PM 26.1820 -79.5240 181° South 467 537 33,000 60 Climbing FlightAware
07:53PM 26.1000 -79.5260 181° South 468 539 33,000  Level FlightAware
07:53PM 26.0010 -79.5280 181° South 467 537 33,000  Level FlightAware
07:54PM 25.9130 -79.5310 182° South 467 537 33,000  Level FlightAware
07:55PM 25.8280 -79.5340 182° South 467 537 33,000  Level FlightAware
07:55PM 25.7320 -79.5370 182° South 466 536 33,000  Level FlightAware
07:56PM 25.6550 -79.5400 182° South 466 536 33,000  Level FlightAware
07:57PM 25.5680 -79.5440 182° South 466 536 33,000  Level FlightAware
07:57PM 25.4730 -79.5470 182° South 466 536 33,000  Level FlightAware
07:58PM 25.3870 -79.5510 182° South 464 534 33,000  Level FlightAware
07:59PM 25.3020 -79.5540 182° South 463 533 33,000  Level FlightAware
07:59PM 25.1990 -79.5580 182° South 463 533 33,000  Level FlightAware
08:00PM 25.1130 -79.5610 182° South 464 534 33,000  Level FlightAware
08:01PM 25.0540 -79.5540 174° South 463 533 33,000  Level FlightAware
08:01PM 24.9730 -79.5180 158° South 462 532 33,000  Level FlightAware
08:02PM 24.8940 -79.4810 157° South 462 532 33,000  Level FlightAware
08:03PM 24.8340 -79.4530 157° South 462 532 33,000  Level FlightAware
08:03PM 24.7520 -79.4150 157° South 462 532 33,000  Level FlightAware
08:04PM 24.6910 -79.3870 157° South 462 532 33,000  Level FlightAware
08:05PM 24.6110 -79.3490 157° South 462 532 33,000  Level FlightAware
08:05PM 24.5510 -79.3210 157° South 462 532 33,000  Level FlightAware
08:06PM 24.4510 -79.2740 157° South 462 532 33,000  Level FlightAware
08:07PM 24.3900 -79.2460 157° South 462 532 33,000  Level FlightAware
08:08PM 24.3300 -79.2180 157° South 462 532 33,000  Level FlightAware
08:08PM 24.2480 -79.1800 157° South 462 532 33,000  Level FlightAware
08:09PM 24.1880 -79.1520 157° South 462 532 33,000  Level FlightAware
08:10PM 24.1280 -79.1240 157° South 462 532 33,000  Level FlightAware
08:11PM 23.9990 -79.0640 157° South 462 532 33,000  Level FlightAware
08:18PM 23.2068 -79.0375 178° South  Level FlightAware Approximate
08:19PM 23.0859 -79.0335 178° South  Level FlightAware Approximate
08:20PM 22.9649 -79.0295 178° South  Level FlightAware Approximate
08:21PM 22.8440 -79.0255 178° South  Level FlightAware Approximate
08:22PM 22.7231 -79.0215 178° South  Level FlightAware Approximate
08:23PM 22.6021 -79.0175 178° South  Level FlightAware Approximate
08:24PM 22.4812 -79.0135 178° South  Level FlightAware Approximate
08:25PM 22.3602 -79.0096 178° South  Level FlightAware Approximate
08:26PM 22.2393 -79.0056 178° South  Level FlightAware Approximate
08:27PM 22.1184 -79.0016 178° South  Level FlightAware Approximate
08:28PM 21.9974 -78.9977 178° South  Level FlightAware Approximate
08:29PM 21.8765 -78.9937 178° South  Level FlightAware Approximate
08:30PM 21.7555 -78.9898 178° South  Level FlightAware Approximate
08:31PM 21.6346 -78.9858 178° South  Level FlightAware Approximate
08:32PM 21.5136 -78.9819 178° South  Level FlightAware Approximate
08:33PM 21.3927 -78.9780 178° South  Level FlightAware Approximate
08:34PM 21.2717 -78.9741 178° South  Level FlightAware Approximate
08:35PM 21.1508 -78.9702 178° South  Level FlightAware Approximate
08:36PM 21.0298 -78.9663 178° South  Level FlightAware Approximate
08:37PM 20.9089 -78.9624 178° South  Level FlightAware Approximate
08:38PM 20.7879 -78.9585 178° South  Level FlightAware Approximate
08:39PM 20.6670 -78.9546 178° South  Level FlightAware Approximate
08:40PM 20.5460 -78.9508 178° South  Level FlightAware Approximate
08:41PM 20.4251 -78.9469 178° South  Level FlightAware Approximate
08:42PM 20.3041 -78.9430 178° South  Level FlightAware Approximate
08:43PM 20.1832 -78.9392 178° South  Level FlightAware Approximate
08:44PM 20.0622 -78.9353 178° South  Level FlightAware Approximate
08:45PM 19.9395 -78.9369 183° South  Level FlightAware Approximate
08:46PM 19.8187 -78.9439 183° South  Level FlightAware Approximate
08:47PM 19.6979 -78.9509 183° South  Level FlightAware Approximate
08:48PM 19.5770 -78.9579 183° South  Level FlightAware Approximate
08:49PM 19.4562 -78.9649 183° South  Level FlightAware Approximate
08:50PM 19.3354 -78.9719 183° South  Level FlightAware Approximate
08:51PM 19.2146 -78.9789 183° South  Level FlightAware Approximate
08:52PM 19.0938 -78.9859 183° South  Level FlightAware Approximate
08:53PM 18.9729 -78.9928 183° South  Level FlightAware Approximate
08:54PM 18.8521 -78.9998 183° South  Level FlightAware Approximate
08:55PM 18.7313 -79.0067 183° South  Level FlightAware Approximate
08:56PM 18.6105 -79.0137 183° South  Level FlightAware Approximate
08:57PM 18.4897 -79.0206 183° South  Level FlightAware Approximate
08:58PM 18.3688 -79.0275 183° South  Level FlightAware Approximate
08:59PM 18.2480 -79.0344 183° South  Level FlightAware Approximate
09:00PM 18.1272 -79.0413 183° South  Level FlightAware Approximate
09:01PM 18.0064 -79.0482 183° South  Level FlightAware Approximate
09:02PM 17.8856 -79.0551 183° South  Level FlightAware Approximate
09:03PM 17.7647 -79.0619 183° South  Level FlightAware Approximate
09:04PM 17.6439 -79.0688 183° South  Level FlightAware Approximate
09:05PM 17.5231 -79.0756 183° South  Level FlightAware Approximate
09:06PM 17.4023 -79.0825 183° South  Level FlightAware Approximate
09:07PM 17.2815 -79.0893 183° South  Level FlightAware Approximate
09:08PM 17.1606 -79.0961 183° South  Level FlightAware Approximate
09:09PM 17.0398 -79.1029 183° South  Level FlightAware Approximate
09:10PM 16.9190 -79.1097 183° South  Level FlightAware Approximate
09:11PM 16.7938 -79.1168 183° South  Level FlightAware Approximate
09:12PM 16.6685 -79.1238 183° South  Level FlightAware Approximate
09:13PM 16.5433 -79.1308 183° South  Level FlightAware Approximate
09:14PM 16.4181 -79.1378 183° South  Level FlightAware Approximate
09:15PM 16.2928 -79.1449 183° South  Level FlightAware Approximate
09:16PM 16.1676 -79.1518 183° South  Level FlightAware Approximate
09:17PM 16.0424 -79.1588 183° South  Level FlightAware Approximate
09:18PM 15.9171 -79.1658 183° South  Level FlightAware Approximate
09:19PM 15.7919 -79.1728 183° South  Level FlightAware Approximate
09:20PM 15.6667 -79.1797 183° South  Level FlightAware Approximate
09:21PM 15.5415 -79.1867 183° South  Level FlightAware Approximate
09:22PM 15.4162 -79.1936 183° South  Level FlightAware Approximate
09:23PM 15.2910 -79.2006 183° South  Level FlightAware Approximate
09:24PM 15.1658 -79.2075 183° South  Level FlightAware Approximate
09:25PM 15.0405 -79.2144 183° South  Level FlightAware Approximate
09:26PM 14.9153 -79.2212 183° South  Level FlightAware Approximate
09:27PM 14.7901 -79.2280 183° South  Level FlightAware Approximate
09:28PM 14.6648 -79.2347 183° South  Level FlightAware Approximate
09:29PM 14.5396 -79.2415 183° South  Level FlightAware Approximate
09:30PM 14.4143 -79.2482 183° South  Level FlightAware Approximate
09:31PM 14.2891 -79.2550 183° South  Level FlightAware Approximate
09:32PM 14.1639 -79.2617 183° South  Level FlightAware Approximate
09:33PM 14.0386 -79.2684 183° South  Level FlightAware Approximate
09:34PM 13.9134 -79.2751 183° South  Level FlightAware Approximate
09:35PM 13.7881 -79.2818 183° South  Level FlightAware Approximate
09:36PM 13.6629 -79.2885 183° South  Level FlightAware Approximate
09:37PM 13.5377 -79.2952 183° South  Level FlightAware Approximate
09:38PM 13.4124 -79.3018 183° South  Level FlightAware Approximate
09:38PM 12.2020 -79.3870 183° South 486 559 33,000  Level FlightAware
09:39PM 13.2872 -79.3085 183° South  Level FlightAware Approximate
09:39PM 12.0970 -79.3920 183° South 484 557 33,000  Level FlightAware
09:40PM 12.0170 -79.3960 183° South 482 555 33,000  Level FlightAware
09:40PM 11.9280 -79.4000 183° South 481 554 33,000  Level FlightAware
09:41PM 11.8390 -79.4040 183° South 479 551 33,000  Level FlightAware
09:42PM 11.7480 -79.4080 182° South 470 541 33,000  Level FlightAware
09:42PM 11.6710 -79.4120 183° South 469 540 33,000  Level FlightAware
09:43PM 11.5730 -79.4170 183° South 468 539 33,000  Level FlightAware
09:44PM 11.4840 -79.4210 183° South 467 537 33,000  Level FlightAware
09:44PM 11.3970 -79.4250 183° South 467 537 33,000  Level FlightAware
09:45PM 11.2960 -79.4300 183° South 466 536 33,000  Level FlightAware
09:46PM 11.2090 -79.4340 183° South 466 536 33,000  Level FlightAware
09:46PM 11.1110 -79.4380 182° South 466 536 33,000  Level FlightAware
09:47PM 11.0340 -79.4420 183° South 467 537 33,000  Level FlightAware
09:48PM 10.9440 -79.4460 182° South 467 537 33,000  Level FlightAware
09:48PM 10.8450 -79.4510 183° South 466 536 33,000 -360 Level FlightAware
09:49PM 10.7800 -79.4540 183° South 469 540 32,600 -960 Descending FlightAware
09:50PM 10.6830 -79.4580 182° South 463 533 31,800 -1,200 Descending FlightAware
09:50PM 10.5980 -79.4620 183° South 450 518 30,900 -1,680 Descending FlightAware
09:51PM 10.5030 -79.4670 183° South 450 518 29,500 -1,920 Descending FlightAware
09:52PM 10.4190 -79.4720 183° South 431 496 28,200 -1,980 Descending FlightAware
09:52PM 10.3270 -79.4770 183° South 419 482 26,700 -1,980 Descending FlightAware
09:53PM 10.2490 -79.4810 183° South 421 484 25,400 -1,920 Descending FlightAware
09:54PM 10.1800 -79.4850 183° South 417 480 24,300 -1,920 Descending FlightAware
09:54PM 10.1020 -79.4890 183° South 401 461 23,000 -1,980 Descending FlightAware
09:55PM 10.0160 -79.4940 183° South 401 461 21,500 -2,040 Descending FlightAware
09:56PM 9.9610 -79.4970 183° South 388 447 20,500 -2,340 Descending FlightAware
09:56PM 9.8790 -79.5010 183° South 389 448 18,600 -2,520 Descending FlightAware
09:57PM 9.8050 -79.5060 184° South 390 449 17,000 -2,400 Descending FlightAware
09:58PM 9.7220 -79.5110 183° South 386 444 15,200 -1,440 Descending FlightAware
09:58PM 9.6540 -79.5140 182° South 356 410 15,000 -1,140 Descending FlightAware
09:59PM 9.5870 -79.5180 183° South 353 406 13,700 -1,920 Descending FlightAware
10:00PM 9.5130 -79.5220 183° South 341 392 12,300 -1,920 Descending FlightAware
10:00PM 9.4560 -79.5250 183° South 339 390 11,200 -1,680 Descending FlightAware
10:01PM 9.3940 -79.5280 183° South 326 375 10,200 -1,320 Descending FlightAware
10:02PM 9.3500 -79.5310 184° South 304 350 9,700 -1,200 Descending FlightAware
10:02PM 9.3170 -79.5330 183° South 292 336 9,100 -1,680 Descending FlightAware
10:02PM 9.2820 -79.5350 183° South 288 331 8,300 -1,800 Descending FlightAware
10:03PM 9.2490 -79.5370 183° South 275 316 7,600 -1,680 Descending FlightAware
10:03PM 9.2100 -79.5390 183° South 278 320 6,800 -1,320 Descending FlightAware
10:04PM 9.1790 -79.5400 182° South 262 302 6,400 -1,140 Descending FlightAware
10:04PM 9.1440 -79.5420 183° South 239 275 5,800 -1,440 Descending FlightAware
10:05PM 9.1160 -79.5440 184° South 224 258 5,100 -1,740 Descending FlightAware
10:05PM 9.0960 -79.5450 183° South 230 265 4,500 -1,380 Descending FlightAware
10:05PM 9.0700 -79.5460 182° South 207 238 4,100 -480 Descending FlightAware
10:06PM 9.0420 -79.5480 184° South 191 220 4,100  Level FlightAware
10:06PM 9.0330 -79.5490 186° South 182 209 4,100  Level FlightAware
10:07PM 9.0070 -79.5500 182° South 182 209 4,100  Level FlightAware
10:07PM 8.9950 -79.5510 185° South 182 209 4,100  Level FlightAware
10:07PM 8.9760 -79.5520 183° South 182 209 4,100 -600 Level FlightAware
10:10PM 8.8542 -79.5139 33° Northeast  Level FlightAware Approximate
10:10PM 8.9300 -79.4750 33° Northeast 1,800  Level FlightAware
10:11PM 8.9640 -79.4300 53° Northeast 174 200 1,800 -300 Level FlightAware
10:11PM 8.9940 -79.4230 13° North 153 176 1,300 -960 Descending FlightAware
10:12PM 9.0140 -79.4120 29° Northeast 149 171 900 -840 Descending FlightAware
10:12PM 9.0320 -79.4010 31° Northeast 150 173 500 -840 Descending FlightAware
10:13PM 9.0510 -79.3910 27° Northeast 152 175 100 -840 Descending FlightAware
10:13PM 9.0560 -79.3880 31° Northeast 140 161 -600 Descending FlightAware
10:14PM 9.0640 -79.3840 26° Northeast 26 30  Level FlightAware